createdAt,value
2022-11-12T00:01:33.835Z,99329.25
2022-11-12T00:03:35.167Z,99327.56
2022-11-12T00:05:36.497Z,99326.75
2022-11-12T00:07:37.870Z,99325.03
2022-11-12T00:09:39.145Z,99322.50
2022-11-12T00:11:40.430Z,99325.06
2022-11-12T00:13:41.717Z,99327.63
2022-11-12T00:15:43.055Z,99323.38
2022-11-12T00:17:44.391Z,99318.25
2022-11-12T00:19:45.692Z,99327.63
2022-11-12T00:21:47.022Z,99326.78
2022-11-12T00:23:48.429Z,99319.13
2022-11-12T00:25:49.802Z,99320.84
2022-11-12T00:27:51.122Z,99317.41
2022-11-12T00:29:52.413Z,99327.63
2022-11-12T00:31:53.739Z,99316.53
2022-11-12T00:33:55.158Z,99327.59
2022-11-12T00:35:56.428Z,99328.47
2022-11-12T00:37:57.966Z,99325.00
2022-11-12T00:39:59.249Z,99324.13
2022-11-12T00:42:00.524Z,99327.53
2022-11-12T00:44:01.825Z,99324.09
2022-11-12T00:46:03.110Z,99331.75
2022-11-12T00:48:04.416Z,99329.19
2022-11-12T00:50:05.719Z,99330.00
2022-11-12T00:52:06.990Z,99323.19
2022-11-12T00:54:08.277Z,99326.59
2022-11-12T00:56:09.615Z,99330.81
2022-11-12T00:58:10.888Z,99330.00
2022-11-12T01:00:12.186Z,99332.56
2022-11-12T01:02:14.262Z,99331.69
2022-11-12T01:04:15.550Z,99326.59
2022-11-12T01:06:17.222Z,99332.50
2022-11-12T01:08:18.561Z,99329.13
2022-11-12T01:10:19.877Z,99329.16
2022-11-12T01:12:21.176Z,99254.31
2022-11-12T01:14:22.502Z,99331.69
2022-11-12T01:16:23.837Z,99327.44
2022-11-12T01:18:25.428Z,99326.59
2022-11-12T01:20:26.905Z,99317.22
2022-11-12T01:22:28.237Z,99320.66
2022-11-12T01:24:29.685Z,99325.78
2022-11-12T01:26:30.975Z,99328.38
2022-11-12T01:28:32.289Z,99325.00
2022-11-12T01:30:33.580Z,99330.09
2022-11-12T01:32:34.861Z,99327.56
2022-11-12T01:34:36.165Z,99330.13
2022-11-12T01:36:37.461Z,99325.88
2022-11-12T01:38:38.940Z,99325.88
2022-11-12T01:40:40.257Z,99331.88
2022-11-12T01:42:41.567Z,99329.31
2022-11-12T01:44:43.029Z,99333.59
2022-11-12T01:46:44.340Z,99335.31
2022-11-12T01:48:45.637Z,99331.88
2022-11-12T01:50:46.937Z,99338.72
2022-11-12T01:52:48.207Z,99331.03
2022-11-12T01:54:49.927Z,99335.31
2022-11-12T01:56:51.520Z,99334.44
2022-11-12T01:58:52.869Z,99336.16
2022-11-12T02:00:54.404Z,99340.41
2022-11-12T02:02:55.738Z,99345.50
2022-11-12T02:04:57.054Z,99339.53
2022-11-12T02:06:58.477Z,99341.25
2022-11-12T02:08:59.830Z,99341.19
2022-11-12T02:11:01.116Z,99335.22
2022-11-12T02:13:20.853Z,99335.22
2022-11-12T02:15:22.169Z,99330.09
2022-11-12T02:17:23.445Z,99330.06
2022-11-12T02:19:24.945Z,99336.88
2022-11-12T02:21:26.252Z,99334.31
2022-11-12T02:23:27.550Z,99332.56
2022-11-12T02:25:28.906Z,99327.44
2022-11-12T02:27:30.193Z,99326.59
2022-11-12T02:29:31.537Z,99327.44
2022-11-12T02:31:32.824Z,99328.31
2022-11-12T02:33:34.157Z,99324.88
2022-11-12T02:35:35.487Z,99319.78
2022-11-12T02:37:36.802Z,99320.66
2022-11-12T02:39:38.107Z,99327.44
2022-11-12T02:41:39.563Z,99322.34
2022-11-12T02:43:40.862Z,99320.66
2022-11-12T02:45:42.142Z,99324.06
2022-11-12T02:47:43.446Z,99322.41
2022-11-12T02:49:44.732Z,99324.97
2022-11-12T02:51:46.019Z,99321.56
2022-11-12T02:53:47.310Z,99327.56
2022-11-12T02:55:48.596Z,99323.28
2022-11-12T02:57:50.073Z,99330.97
2022-11-12T02:59:51.363Z,99330.13
2022-11-12T03:01:52.655Z,99330.13
2022-11-12T03:03:53.974Z,99344.63
2022-11-12T03:05:55.240Z,99323.34
2022-11-12T03:07:56.730Z,99337.84
2022-11-12T03:09:58.000Z,99330.19
2022-11-12T03:11:59.282Z,99340.41
2022-11-12T03:14:00.739Z,99334.44
2022-11-12T03:16:02.066Z,99333.59
2022-11-12T03:18:03.382Z,99333.63
2022-11-12T03:20:04.702Z,99335.28
2022-11-12T03:22:06.011Z,99331.91
2022-11-12T03:24:07.302Z,99332.75
2022-11-12T03:26:09.344Z,99331.03
2022-11-12T03:28:10.700Z,99334.47
2022-11-12T03:30:11.985Z,99342.97
2022-11-12T03:32:13.274Z,99344.66
2022-11-12T03:34:14.562Z,99250.22
2022-11-12T03:36:15.850Z,99340.34
2022-11-12T03:38:17.182Z,99343.75
2022-11-12T03:40:18.473Z,99337.75
2022-11-12T03:42:19.755Z,99340.28
2022-11-12T03:44:21.057Z,99335.13
2022-11-12T03:46:22.549Z,99343.66
2022-11-12T03:48:23.993Z,99340.22
2022-11-12T03:50:25.633Z,99338.50
2022-11-12T03:52:27.034Z,99336.81
2022-11-12T03:54:28.319Z,99333.38
2022-11-12T03:56:29.793Z,99333.38
2022-11-12T03:58:31.097Z,99332.53
2022-11-12T04:00:32.421Z,99338.53
2022-11-12T04:02:33.735Z,99330.84
2022-11-12T04:04:53.890Z,99331.72
2022-11-12T04:07:14.239Z,99328.31
2022-11-12T04:09:15.557Z,99333.41
2022-11-12T04:11:17.071Z,99325.78
2022-11-12T04:13:30.403Z,99324.09
2022-11-12T04:15:31.701Z,99318.97
2022-11-12T04:17:51.681Z,99319.84
2022-11-12T04:20:11.448Z,99330.09
2022-11-12T04:22:12.791Z,99326.72
2022-11-12T04:24:34.076Z,99323.31
2022-11-12T04:26:35.380Z,99320.78
2022-11-12T04:28:36.665Z,99330.16
2022-11-12T04:30:38.258Z,99328.47
2022-11-12T04:32:39.586Z,99325.06
2022-11-12T04:34:41.013Z,99325.91
2022-11-12T04:36:42.434Z,99319.97
2022-11-12T04:38:43.737Z,99317.41
2022-11-12T04:41:03.600Z,99328.50
2022-11-12T04:43:23.388Z,99323.41
2022-11-12T04:45:24.648Z,99320.84
2022-11-12T04:47:25.953Z,99320.81
2022-11-12T04:49:27.285Z,99332.75
2022-11-12T04:51:47.121Z,99325.09
2022-11-12T04:53:48.417Z,99190.69
2022-11-12T04:55:49.692Z,99327.59
2022-11-12T04:57:53.666Z,99327.53
2022-11-12T04:59:57.474Z,99321.56
2022-11-12T05:01:58.756Z,99321.53
2022-11-12T05:04:00.115Z,99327.44
2022-11-12T05:06:01.810Z,99319.78
2022-11-12T05:08:03.154Z,99333.38
2022-11-12T05:10:04.624Z,99318.03
2022-11-12T05:12:05.916Z,99332.53
2022-11-12T05:14:07.199Z,99326.53
2022-11-12T05:16:08.489Z,99322.31
2022-11-12T05:18:09.775Z,99323.97
2022-11-12T05:20:11.385Z,99317.19
2022-11-12T05:22:27.415Z,99323.13
2022-11-12T05:24:41.975Z,99323.97
2022-11-12T05:26:44.061Z,99322.28
2022-11-12T05:28:45.429Z,99328.25
2022-11-12T05:30:46.730Z,99331.69
2022-11-12T05:32:48.060Z,99327.47
2022-11-12T05:34:49.348Z,99331.75
2022-11-12T05:36:50.656Z,99332.63
2022-11-12T05:38:51.933Z,99337.75
2022-11-12T05:40:53.220Z,99342.91
2022-11-12T05:42:54.545Z,99339.50
2022-11-12T05:44:55.838Z,99344.63
2022-11-12T05:46:57.145Z,99347.19
2022-11-12T05:48:58.434Z,99341.25
2022-11-12T05:51:12.615Z,99350.63
2022-11-12T05:53:14.549Z,99350.63
2022-11-12T05:55:15.870Z,99352.34
2022-11-12T05:57:17.196Z,99342.13
2022-11-12T05:59:18.489Z,99348.94
2022-11-12T06:01:19.788Z,99346.38
2022-11-12T06:03:21.075Z,99353.22
2022-11-12T06:05:22.350Z,99357.47
2022-11-12T06:07:23.686Z,99348.94
2022-11-12T06:09:24.991Z,99354.91
2022-11-12T06:11:26.286Z,99354.91
2022-11-12T06:13:27.640Z,99356.56
2022-11-12T06:15:28.937Z,99355.75
2022-11-12T06:17:30.256Z,99349.72
2022-11-12T06:19:31.542Z,99353.13
2022-11-12T06:21:32.869Z,99358.22
2022-11-12T06:23:34.510Z,99361.59
2022-11-12T06:25:35.813Z,99363.25
2022-11-12T06:27:37.166Z,99365.78
2022-11-12T06:29:38.888Z,99370.03
2022-11-12T06:31:40.174Z,99372.59
2022-11-12T06:33:41.933Z,99369.16
2022-11-12T06:35:43.440Z,99375.09
2022-11-12T06:37:44.753Z,99378.50
2022-11-12T06:39:46.080Z,99381.91
2022-11-12T06:41:47.386Z,99377.69
2022-11-12T06:43:48.729Z,99378.53
2022-11-12T06:45:50.208Z,99385.38
2022-11-12T06:47:51.500Z,99389.66
2022-11-12T06:49:52.786Z,99382.84
2022-11-12T06:51:54.098Z,99387.97
2022-11-12T06:53:55.401Z,99388.00
2022-11-12T06:55:56.686Z,99386.31
2022-11-12T06:57:58.077Z,99390.56
2022-11-12T06:59:59.353Z,99390.56
2022-11-12T07:02:00.673Z,99388.91
2022-11-12T07:04:02.001Z,99386.38
2022-11-12T07:06:03.521Z,99384.66
2022-11-12T07:08:04.809Z,99382.97
2022-11-12T07:10:06.169Z,99373.59
2022-11-12T07:12:07.497Z,99381.28
2022-11-12T07:14:08.972Z,99377.03
2022-11-12T07:16:11.202Z,99377.88
2022-11-12T07:18:12.505Z,99380.44
2022-11-12T07:20:13.808Z,99385.25
2022-11-12T07:22:15.088Z,99383.56
2022-11-12T07:24:16.390Z,99380.06
2022-11-12T07:26:21.208Z,99378.63
2022-11-12T07:28:22.690Z,99374.47
2022-11-12T07:30:24.001Z,99375.38
2022-11-12T07:32:25.336Z,99381.31
2022-11-12T07:34:26.630Z,99374.50
2022-11-12T07:36:27.922Z,99377.91
2022-11-12T07:38:29.436Z,99384.72
2022-11-12T07:40:30.863Z,99381.25
2022-11-12T07:42:32.180Z,99381.19
2022-11-12T07:44:33.461Z,99380.34
2022-11-12T07:46:34.764Z,99382.84
2022-11-12T07:48:36.090Z,99381.13
2022-11-12T07:50:37.417Z,99374.28
2022-11-12T07:52:38.744Z,99376.78
2022-11-12T07:54:40.025Z,99369.09
2022-11-12T07:56:41.312Z,99375.03
2022-11-12T07:58:42.672Z,99378.47
2022-11-12T08:00:43.968Z,99373.34
2022-11-12T08:02:45.451Z,99379.31
2022-11-12T08:04:46.764Z,99375.03
2022-11-12T08:06:49.325Z,99381.00
2022-11-12T08:08:50.702Z,99368.19
2022-11-12T08:10:52.177Z,99375.03
2022-11-12T08:13:02.418Z,99373.34
2022-11-12T08:15:03.954Z,99370.78
2022-11-12T08:17:05.250Z,99374.19
2022-11-12T08:19:06.579Z,99377.38
2022-11-12T08:21:08.008Z,99383.72
2022-11-12T08:23:10.039Z,99386.19
2022-11-12T08:25:11.326Z,99382.75
2022-11-12T08:27:12.604Z,99366.81
2022-11-12T08:29:13.902Z,99382.16
2022-11-12T08:31:15.188Z,99368.56
2022-11-12T08:33:16.470Z,99369.38
2022-11-12T08:35:17.756Z,99379.63
2022-11-12T08:37:19.066Z,99382.16
2022-11-12T08:39:20.414Z,99377.88
2022-11-12T08:41:21.924Z,99380.50
2022-11-12T08:43:23.288Z,99378.75
2022-11-12T08:45:24.562Z,99382.16
2022-11-12T08:47:25.880Z,99380.44
2022-11-12T08:49:27.207Z,99388.97
2022-11-12T08:51:28.524Z,99388.09
2022-11-12T08:53:30.037Z,99380.41
2022-11-12T08:55:31.548Z,99381.25
2022-11-12T08:57:32.834Z,99382.91
2022-11-12T08:59:34.165Z,99380.34
2022-11-12T09:01:35.540Z,99373.50
2022-11-12T09:03:36.966Z,99380.31
2022-11-12T09:05:38.248Z,99386.28
2022-11-12T09:07:55.095Z,99384.53
2022-11-12T09:09:56.486Z,99388.81
2022-11-12T09:11:57.813Z,99388.78
2022-11-12T09:13:59.187Z,99387.94
2022-11-12T09:16:01.213Z,99393.06
2022-11-12T09:18:02.497Z,99388.81
2022-11-12T09:20:03.825Z,99391.34
2022-11-12T09:22:05.127Z,99389.69
2022-11-12T09:24:06.432Z,99387.94
2022-11-12T09:26:07.765Z,99390.50
2022-11-12T09:28:09.192Z,99393.09
2022-11-12T09:30:10.517Z,99391.38
2022-11-12T09:32:11.842Z,99390.50
2022-11-12T09:34:13.149Z,99391.38
2022-11-12T09:36:14.476Z,99393.06
2022-11-12T09:38:15.937Z,99393.94
2022-11-12T09:40:17.602Z,99393.94
2022-11-12T09:42:18.901Z,99399.06
2022-11-12T09:44:25.949Z,99393.94
2022-11-12T09:46:28.233Z,99395.66
2022-11-12T09:48:30.039Z,99388.81
2022-11-12T09:50:34.232Z,99392.25
2022-11-12T09:52:35.521Z,99388.81
2022-11-12T09:54:36.821Z,99387.09
2022-11-12T09:56:38.093Z,99392.22
2022-11-12T09:58:39.368Z,99393.13
2022-11-12T10:00:44.848Z,99391.41
2022-11-12T10:02:46.437Z,99390.56
2022-11-12T10:04:47.784Z,99385.44
2022-11-12T10:06:49.262Z,99390.63
2022-11-12T10:08:50.562Z,99394.00
2022-11-12T10:10:51.884Z,99386.31
2022-11-12T10:12:53.169Z,99390.59
2022-11-12T10:14:54.469Z,99382.91
2022-11-12T10:16:55.781Z,99386.28
2022-11-12T10:18:57.065Z,99388.84
2022-11-12T10:20:58.342Z,99392.91
2022-11-12T10:22:59.760Z,99376.22
2022-11-12T10:25:03.927Z,99375.31
2022-11-12T10:27:05.249Z,99383.31
2022-11-12T10:29:06.569Z,99375.66
2022-11-12T10:31:07.907Z,99372.28
2022-11-12T10:33:09.202Z,99372.28
2022-11-12T10:35:10.817Z,99375.91
2022-11-12T10:37:12.385Z,99381.41
2022-11-12T10:39:13.668Z,99375.69
2022-11-12T10:41:14.957Z,99386.72
2022-11-12T10:43:16.270Z,99378.09
2022-11-12T10:45:17.557Z,99383.16
2022-11-12T10:47:18.881Z,99372.06
2022-11-12T10:49:20.202Z,99374.66
2022-11-12T10:51:22.081Z,99370.19
2022-11-12T10:53:23.374Z,99371.81
2022-11-12T10:55:24.869Z,99367.47
2022-11-12T10:57:26.158Z,99375.09
2022-11-12T10:59:27.479Z,99369.00
2022-11-12T11:01:32.193Z,99366.16
2022-11-12T11:03:36.710Z,99369.03
2022-11-12T11:05:38.049Z,99361.50
2022-11-12T11:07:39.590Z,99365.81
2022-11-12T11:09:40.869Z,99363.28
2022-11-12T11:11:42.161Z,99368.44
2022-11-12T11:13:43.442Z,99361.63
2022-11-12T11:15:44.721Z,99370.16
2022-11-12T11:17:46.045Z,99359.94
2022-11-12T11:19:47.321Z,99355.72
2022-11-12T11:21:49.883Z,99358.25
2022-11-12T11:23:51.203Z,99359.13
2022-11-12T11:25:52.509Z,99364.25
2022-11-12T11:27:53.788Z,99366.81
2022-11-12T11:29:57.866Z,99363.41
2022-11-12T11:31:59.146Z,99365.97
2022-11-12T11:34:00.849Z,99366.81
2022-11-12T11:36:02.168Z,99360.84
2022-11-12T11:38:03.468Z,99365.13
2022-11-12T11:40:06.679Z,99365.94
2022-11-12T11:42:08.029Z,99353.97
2022-11-12T11:44:13.750Z,99356.53
2022-11-12T11:46:15.439Z,99349.69
2022-11-12T11:48:16.781Z,99358.16
2022-11-12T11:50:19.309Z,99352.16
2022-11-12T11:52:20.600Z,99351.28
2022-11-12T11:54:21.889Z,99347.88
2022-11-12T11:56:23.180Z,99352.13
2022-11-12T11:58:24.970Z,99355.50
2022-11-12T12:00:26.821Z,99343.53
2022-11-12T12:02:28.193Z,99341.84
2022-11-12T12:04:29.677Z,99344.38
2022-11-12T12:06:30.961Z,99340.13
2022-11-12T12:08:32.256Z,99344.38
2022-11-12T12:10:53.711Z,99330.75
2022-11-12T12:12:54.814Z,99343.56
2022-11-12T12:14:56.154Z,99339.31
2022-11-12T12:16:57.473Z,99344.44
2022-11-12T12:18:58.832Z,99344.44
2022-11-12T12:21:00.201Z,99335.91
2022-11-12T12:23:01.590Z,99333.38
2022-11-12T12:25:02.965Z,99338.53
2022-11-12T12:27:04.261Z,99195.66
2022-11-12T12:29:05.553Z,99327.47
2022-11-12T12:31:06.906Z,99329.22
2022-11-12T12:33:08.672Z,99332.66
2022-11-12T12:35:09.978Z,99331.78
2022-11-12T12:37:11.348Z,99323.31
2022-11-12T12:39:12.637Z,99331.84
2022-11-12T12:41:14.255Z,99325.91
2022-11-12T12:43:15.577Z,99323.34
2022-11-12T12:45:16.930Z,99321.66
2022-11-12T12:47:18.404Z,99317.41
2022-11-12T12:49:19.784Z,99314.00
2022-11-12T12:51:21.226Z,99324.25
2022-11-12T12:53:22.685Z,99316.59
2022-11-12T12:55:24.180Z,99315.75
2022-11-12T12:57:25.472Z,99327.66
2022-11-12T12:59:26.764Z,99319.16
2022-11-12T13:01:28.118Z,99320.00
2022-11-12T13:03:29.460Z,99314.91
2022-11-12T13:05:30.798Z,99306.34
2022-11-12T13:07:34.828Z,99341.19
2022-11-12T13:09:36.161Z,99311.16
2022-11-12T13:11:57.453Z,99305.84
2022-11-12T13:13:58.978Z,99310.84
2022-11-12T13:16:00.422Z,99316.63
2022-11-12T13:18:01.902Z,99325.97
2022-11-12T13:20:03.281Z,99315.03
2022-11-12T13:22:04.638Z,99321.09
2022-11-12T13:24:10.511Z,99323.69
2022-11-12T13:26:11.893Z,99320.25
2022-11-12T13:28:14.295Z,99330.34
2022-11-12T13:30:18.528Z,99324.19
2022-11-12T13:32:19.879Z,99317.94
2022-11-12T13:34:21.359Z,99328.19
2022-11-12T13:36:22.849Z,99331.81
2022-11-12T13:38:24.390Z,99210.34
2022-11-12T13:40:26.368Z,99330.13
2022-11-12T13:42:46.396Z,99328.38
2022-11-12T13:44:50.922Z,99222.13
2022-11-12T13:46:56.103Z,99333.53
2022-11-12T13:48:57.524Z,99329.25
2022-11-12T13:50:58.849Z,99319.00
2022-11-12T13:53:00.165Z,99309.59
2022-11-12T13:55:01.458Z,99316.41
2022-11-12T13:57:03.165Z,99324.19
2022-11-12T13:59:04.645Z,99320.69
2022-11-12T14:01:06.100Z,99313.88
2022-11-12T14:03:07.558Z,99294.50
2022-11-12T14:05:08.885Z,99299.88
2022-11-12T14:07:10.219Z,99312.56
2022-11-12T14:09:11.529Z,99312.56
2022-11-12T14:11:12.792Z,99298.84
2022-11-12T14:13:15.033Z,99297.13
2022-11-12T14:15:16.341Z,99302.25
2022-11-12T14:17:21.988Z,99292.00
2022-11-12T14:21:25.231Z,99298.97
2022-11-12T14:23:26.518Z,99301.78
2022-11-12T14:25:27.881Z,99306.16
2022-11-12T14:27:29.208Z,99296.84
2022-11-12T14:29:34.812Z,99294.31
2022-11-12T14:31:38.224Z,99287.50
2022-11-12T14:33:39.549Z,99299.44
2022-11-12T14:35:40.833Z,99302.00
2022-11-12T14:37:43.866Z,99301.16
2022-11-12T14:39:45.461Z,99297.75
2022-11-12T14:41:47.747Z,99304.59
2022-11-12T14:43:54.963Z,99296.09
2022-11-12T14:46:03.999Z,99301.19
2022-11-12T14:48:05.342Z,99292.69
2022-11-12T14:50:06.664Z,99292.66
2022-11-12T14:52:08.019Z,99286.66
2022-11-12T14:54:12.308Z,99296.00
2022-11-12T14:56:13.634Z,99294.31
2022-11-12T14:58:14.922Z,99292.56
2022-11-12T15:00:16.271Z,99291.66
2022-11-12T15:02:48.927Z,99287.34
2022-11-12T15:04:38.875Z,99289.03
2022-11-12T15:06:40.200Z,99286.47
2022-11-12T15:08:41.522Z,99280.47
2022-11-12T15:10:42.859Z,99288.13
2022-11-12T15:12:44.140Z,99279.56
2022-11-12T15:14:45.462Z,99280.41
2022-11-12T15:16:46.765Z,99283.78
2022-11-12T15:18:48.049Z,99284.63
2022-11-12T15:20:49.401Z,99294.84
2022-11-12T15:22:53.864Z,99286.31
2022-11-12T15:24:55.181Z,99294.81
2022-11-12T15:26:57.157Z,99290.56
2022-11-12T15:28:58.561Z,99283.75
2022-11-12T15:30:59.865Z,99276.09
2022-11-12T15:33:01.194Z,99282.91
2022-11-12T15:35:02.500Z,99282.09
2022-11-12T15:37:03.828Z,99281.28
2022-11-12T15:39:05.167Z,99284.03
2022-11-12T15:41:06.439Z,99288.31
2022-11-12T15:43:07.722Z,99279.28
2022-11-12T15:45:09.043Z,99290.97
2022-11-12T15:47:10.370Z,99288.34
2022-11-12T15:49:11.682Z,99274.06
2022-11-12T15:51:13.012Z,99274.91
2022-11-12T15:53:14.317Z,99274.81
2022-11-12T15:55:15.620Z,99280.34
2022-11-12T15:57:16.970Z,99270.84
2022-11-12T15:59:18.497Z,99278.97
2022-11-12T16:01:19.867Z,99280.28
2022-11-12T16:03:21.265Z,99280.47
2022-11-12T16:05:22.595Z,99276.28
2022-11-12T16:07:23.926Z,99279.72
2022-11-12T16:09:25.298Z,99284.84
2022-11-12T16:11:35.634Z,99279.72
2022-11-12T16:13:39.981Z,99271.16
2022-11-12T16:15:41.331Z,99281.41
2022-11-12T16:17:42.742Z,99274.56
2022-11-12T16:19:44.071Z,99279.69
2022-11-12T16:21:45.447Z,99274.56
2022-11-12T16:23:49.629Z,99273.72
2022-11-12T16:25:50.916Z,99283.13
2022-11-12T16:27:55.900Z,99271.19
2022-11-12T16:29:57.377Z,99283.97
2022-11-12T16:31:58.863Z,99278.91
2022-11-12T16:34:00.163Z,99280.63
2022-11-12T16:36:01.445Z,99274.66
2022-11-12T16:38:02.770Z,99284.06
2022-11-12T16:40:04.048Z,99280.66
2022-11-12T16:42:05.394Z,99276.44
2022-11-12T16:44:06.703Z,99275.59
2022-11-12T16:46:07.989Z,99279.88
2022-11-12T16:48:09.273Z,99274.78
2022-11-12T16:50:10.610Z,99271.41
2022-11-12T16:52:11.997Z,99278.97
2022-11-12T16:54:13.319Z,99273.53
2022-11-12T16:56:14.770Z,99262.38
2022-11-12T16:58:16.076Z,99269.22
2022-11-12T17:00:17.659Z,99266.56
2022-11-12T17:02:18.988Z,99258.03
2022-11-12T17:04:20.406Z,99264.00
2022-11-12T17:06:21.696Z,99266.53
2022-11-12T17:08:23.043Z,99265.53
2022-11-12T17:10:25.354Z,99255.94
2022-11-12T17:12:26.874Z,99258.34
2022-11-12T17:14:28.666Z,99262.72
2022-11-12T17:16:30.065Z,99255.91
2022-11-12T17:18:31.349Z,99256.88
2022-11-12T17:20:32.990Z,99256.03
2022-11-12T17:22:37.127Z,99250.94
2022-11-12T17:24:38.412Z,99247.53
2022-11-12T17:26:39.729Z,99247.31
2022-11-12T17:28:41.172Z,99250.94
2022-11-12T17:30:42.527Z,99250.13
2022-11-12T17:32:43.954Z,99240.75
2022-11-12T17:34:45.295Z,99251.88
2022-11-12T17:36:46.588Z,99245.91
2022-11-12T17:38:50.522Z,99248.47
2022-11-12T17:40:51.841Z,99245.91
2022-11-12T17:42:53.929Z,99245.84
2022-11-12T17:44:58.269Z,99234.72
2022-11-12T17:46:59.585Z,99241.00
2022-11-12T17:49:00.918Z,99230.13
2022-11-12T17:51:02.201Z,99231.63
2022-11-12T17:53:03.537Z,99240.50
2022-11-12T17:55:04.833Z,99237.06
2022-11-12T17:57:06.140Z,99236.31
2022-11-12T17:59:07.463Z,99242.28
2022-11-12T18:01:08.830Z,99245.75
2022-11-12T18:03:10.194Z,99246.63
2022-11-12T18:05:11.554Z,99243.22
2022-11-12T18:07:13.136Z,99248.41
2022-11-12T18:09:14.877Z,99237.31
2022-11-12T18:11:19.182Z,99239.88
2022-11-12T18:13:21.106Z,99240.75
2022-11-12T18:15:22.373Z,99241.63
2022-11-12T18:17:24.285Z,99240.16
2022-11-12T18:19:25.629Z,99238.59
2022-11-12T18:21:26.904Z,99238.69
2022-11-12T18:23:28.342Z,99239.66
2022-11-12T18:25:30.290Z,99229.44
2022-11-12T18:27:31.665Z,99233.66
2022-11-12T18:29:32.997Z,99237.84
2022-11-12T18:31:34.320Z,99240.25
2022-11-12T18:33:37.546Z,99239.38
2022-11-12T18:35:38.829Z,99243.66
2022-11-12T18:37:40.163Z,99236.81
2022-11-12T18:39:41.512Z,99239.38
2022-11-12T18:41:42.818Z,99245.38
2022-11-12T18:43:44.144Z,99248.75
2022-11-12T18:45:45.465Z,99246.16
2022-11-12T18:47:46.785Z,99250.41
2022-11-12T18:49:48.321Z,99253.94
2022-11-12T18:51:49.604Z,99254.91
2022-11-12T18:53:50.942Z,99252.34
2022-11-12T18:55:52.234Z,99253.97
2022-11-12T18:57:53.553Z,99247.94
2022-11-12T18:59:55.145Z,99249.59
2022-11-12T19:01:56.864Z,99248.69
2022-11-12T19:03:58.224Z,99251.16
2022-11-12T19:05:59.557Z,99247.66
2022-11-12T19:08:01.251Z,99245.56
2022-11-12T19:10:14.712Z,99242.78
2022-11-12T19:12:16.605Z,99238.19
2022-11-12T19:14:18.073Z,99242.56
2022-11-12T19:16:19.358Z,99240.06
2022-11-12T19:18:20.656Z,99240.00
2022-11-12T19:20:21.971Z,99229.75
2022-11-12T19:22:23.290Z,99230.38
2022-11-12T19:24:24.642Z,99233.59
2022-11-12T19:26:25.935Z,99229.09
2022-11-12T19:28:27.799Z,99239.94
2022-11-12T19:30:29.240Z,99228.53
2022-11-12T19:32:30.530Z,99236.41
2022-11-12T19:34:31.822Z,99240.78
2022-11-12T19:36:39.459Z,99237.28
2022-11-12T19:38:40.831Z,99241.69
2022-11-12T19:40:42.114Z,99232.34
2022-11-12T19:42:43.422Z,99232.41
2022-11-12T19:44:44.734Z,99229.00
2022-11-12T19:46:46.369Z,99233.28
2022-11-12T19:48:47.651Z,99230.72
2022-11-12T19:50:48.977Z,99233.53
2022-11-12T19:52:50.287Z,99221.03
2022-11-12T19:54:51.622Z,99226.28
2022-11-12T19:56:52.963Z,99225.50
2022-11-12T19:58:55.098Z,99238.38
2022-11-12T20:00:56.435Z,99232.63
2022-11-12T20:02:57.769Z,99227.63
2022-11-12T20:04:59.144Z,99231.00
2022-11-12T20:07:00.503Z,99230.94
2022-11-12T20:09:03.826Z,99236.91
2022-11-12T20:11:05.159Z,99230.91
2022-11-12T20:13:07.153Z,99232.63
2022-11-12T20:15:08.894Z,99237.50
2022-11-12T20:17:10.169Z,99238.31
2022-11-12T20:19:11.471Z,99240.09
2022-11-12T20:21:12.845Z,99243.31
2022-11-12T20:23:14.181Z,99237.41
2022-11-12T20:25:15.461Z,99244.22
2022-11-12T20:27:17.739Z,99247.47
2022-11-12T20:29:19.029Z,99248.34
2022-11-12T20:31:20.788Z,99236.34
2022-11-12T20:33:22.222Z,99241.41
2022-11-12T20:35:23.565Z,99236.44
2022-11-12T20:37:25.766Z,99238.91
2022-11-12T20:39:27.104Z,99234.63
2022-11-12T20:41:28.708Z,99234.31
2022-11-12T20:43:30.082Z,99231.78
2022-11-12T20:45:31.418Z,99232.78
2022-11-12T20:47:32.763Z,99227.75
2022-11-12T20:49:34.053Z,99233.75
2022-11-12T20:51:36.003Z,99232.91
2022-11-12T20:53:37.291Z,99231.28
2022-11-12T20:55:38.598Z,99228.59
2022-11-12T20:57:39.909Z,99227.19
2022-11-12T20:59:41.342Z,99220.38
2022-11-12T21:01:42.717Z,99221.06
2022-11-12T21:03:44.014Z,99219.22
2022-11-12T21:05:45.310Z,99219.25
2022-11-12T21:07:46.645Z,99217.59
2022-11-12T21:09:47.979Z,99217.59
2022-11-12T21:11:49.293Z,99220.19
2022-11-12T21:13:50.779Z,99218.50
2022-11-12T21:15:52.217Z,99230.41
2022-11-12T21:17:53.698Z,99217.66
2022-11-12T21:19:55.034Z,99213.38
2022-11-12T21:21:56.315Z,99210.09
2022-11-12T21:24:03.408Z,99210.06
2022-11-12T21:26:06.174Z,99205.78
2022-11-12T21:28:07.461Z,99205.88
2022-11-12T21:30:08.791Z,99199.88
2022-11-12T21:32:10.113Z,99196.53
2022-11-12T21:34:11.388Z,99188.00
2022-11-12T21:36:16.369Z,99203.38
2022-11-12T21:38:18.058Z,99200.81
2022-11-12T21:40:19.338Z,99204.31
2022-11-12T21:42:20.647Z,99193.19
2022-11-12T21:44:21.984Z,99194.09
2022-11-12T21:46:23.330Z,99187.50
2022-11-12T21:48:24.839Z,99194.44
2022-11-12T21:50:26.370Z,99182.41
2022-11-12T21:52:27.744Z,99187.41
2022-11-12T21:54:29.063Z,99184.78
2022-11-12T21:56:30.440Z,99188.16
2022-11-12T21:58:31.736Z,99177.81
2022-11-12T22:00:42.307Z,99178.53
2022-11-12T22:02:44.215Z,99180.16
2022-11-12T22:04:45.605Z,99186.88
2022-11-12T22:06:46.929Z,99185.06
2022-11-12T22:08:48.343Z,99173.03
2022-11-12T22:10:49.621Z,99175.50
2022-11-12T22:13:19.901Z,99176.25
2022-11-12T22:15:12.213Z,99171.09
2022-11-12T22:17:13.532Z,99174.50
2022-11-12T22:19:16.072Z,99165.03
2022-11-12T22:21:17.407Z,99168.53
2022-11-12T22:23:18.852Z,99165.13
2022-11-12T22:25:20.176Z,99163.38
2022-11-12T22:27:21.577Z,99163.38
2022-11-12T22:29:22.845Z,99160.81
2022-11-12T22:31:27.114Z,99162.50
2022-11-12T22:33:28.433Z,99148.91
2022-11-12T22:35:29.722Z,99154.94
2022-11-12T22:37:31.006Z,99143.81
2022-11-12T22:39:32.339Z,99143.94
2022-11-12T22:41:34.134Z,99144.88
2022-11-12T22:43:36.749Z,99145.63
2022-11-12T22:45:38.086Z,99143.09
2022-11-12T22:47:39.371Z,99153.34
2022-11-12T22:49:40.649Z,99148.25
2022-11-12T22:51:42.069Z,99153.47
2022-11-12T22:53:43.374Z,99151.75
2022-11-12T22:55:44.762Z,99151.84
2022-11-12T22:57:46.092Z,99148.75
2022-11-12T22:59:47.451Z,99147.28
2022-11-12T23:01:48.809Z,99142.19
2022-11-12T23:03:50.175Z,99141.16
2022-11-12T23:05:51.489Z,99141.13
2022-11-12T23:07:52.767Z,99143.63
2022-11-12T23:09:54.129Z,99142.75
2022-11-12T23:11:55.451Z,99137.69
2022-11-12T23:13:56.807Z,99129.13
2022-11-12T23:15:58.288Z,99130.78
2022-11-12T23:17:59.596Z,99127.44
2022-11-12T23:20:00.877Z,99135.06
2022-11-12T23:22:07.551Z,99130.78
2022-11-12T23:24:09.335Z,99135.09
2022-11-12T23:26:10.645Z,99131.63
2022-11-12T23:28:11.941Z,99138.41
2022-11-12T23:30:13.259Z,99130.66
2022-11-12T23:32:14.597Z,99136.66
2022-11-12T23:34:15.934Z,99131.53
2022-11-12T23:36:17.280Z,99123.00
2022-11-12T23:38:18.612Z,99131.44
2022-11-12T23:40:19.916Z,99133.94
2022-11-12T23:42:21.248Z,99115.13
2022-11-12T23:44:22.594Z,99113.34
2022-11-12T23:46:23.886Z,99118.34
2022-11-12T23:48:25.528Z,99108.88
2022-11-12T23:50:27.164Z,99110.56
2022-11-12T23:52:28.484Z,99119.09
2022-11-12T23:54:29.761Z,99113.84
2022-11-12T23:56:31.046Z,99119.72